sensor_id;sensor_type;location;lat;lon;timestamp;pressure;altitude;pressure_sealevel;temperature;humidity
57374;BME280;43964;53.890;25.340;2022-12-18T00:04:36;1032.2;;;-6;61.5
57374;BME280;43964;53.890;25.340;2022-12-18T00:09:34;1032.2;;;-6;61.5
57374;BME280;43964;53.890;25.340;2022-12-18T00:14:44;1032.3;;;-6;61.6
57374;BME280;43964;53.890;25.340;2022-12-18T00:19:24;1032.4;;;-6;61.5
57374;BME280;43964;53.890;25.340;2022-12-18T00:24:48;1032.5;;;-6;61.5
57374;BME280;43964;53.890;25.340;2022-12-18T00:29:36;1032.5;;;-6;61.3
57374;BME280;43964;53.890;25.340;2022-12-18T00:34:24;1032.6;;;-6;61.3
57374;BME280;43964;53.890;25.340;2022-12-18T00:39:34;1032.7;;;-6.1;61.3
57374;BME280;43964;53.890;25.340;2022-12-18T00:44:36;1032.8;;;-6.1;61.3
57374;BME280;43964;53.890;25.340;2022-12-18T00:49:24;1032.8;;;-6.1;61.2
57374;BME280;43964;53.890;25.340;2022-12-18T00:54:24;1032.9;;;-6.1;61.2
57374;BME280;43964;53.890;25.340;2022-12-18T00:59:34;1032.8;;;-6;61.1
57374;BME280;43964;53.890;25.340;2022-12-18T01:04:24;1032.8;;;-6.1;61
57374;BME280;43964;53.890;25.340;2022-12-18T01:09:32;1032.8;;;-6.1;60.9
57374;BME280;43964;53.890;25.340;2022-12-18T01:14:34;1033;;;-6.2;60.7
57374;BME280;43964;53.890;25.340;2022-12-18T01:19:40;1033.1;;;-6.4;60.6
57374;BME280;43964;53.890;25.340;2022-12-18T01:24:28;1033.3;;;-6.4;60.6
57374;BME280;43964;53.890;25.340;2022-12-18T01:29:28;1033.4;;;-6.5;60.8
57374;BME280;43964;53.890;25.340;2022-12-18T01:34:38;1033.4;;;-6.6;60.7
57374;BME280;43964;53.890;25.340;2022-12-18T01:39:28;1033.5;;;-6.6;60.7
57374;BME280;43964;53.890;25.340;2022-12-18T01:45:02;1033.6;;;-6.7;60.6
57374;BME280;43964;53.890;25.340;2022-12-18T01:49:36;1033.5;;;-6.8;60.6
57374;BME280;43964;53.890;25.340;2022-12-18T01:54:50;1033.5;;;-6.8;60.6
57374;BME280;43964;53.890;25.340;2022-12-18T01:59:26;1033.5;;;-6.9;60.4
57374;BME280;43964;53.890;25.340;2022-12-18T02:04:50;1033.6;;;-6.9;60.3
57374;BME280;43964;53.890;25.340;2022-12-18T02:09:40;1033.7;;;-7;60.2
57374;BME280;43964;53.890;25.340;2022-12-18T02:14:39;1033.8;;;-7;60.1
57374;BME280;43964;53.890;25.340;2022-12-18T02:19:37;1033.8;;;-7.1;60
57374;BME280;43964;53.890;25.340;2022-12-18T02:24:54;1033.9;;;-7.1;60
57374;BME280;43964;53.890;25.340;2022-12-18T02:29:43;1034;;;-7.2;60
57374;BME280;43964;53.890;25.340;2022-12-18T02:34:40;1034.1;;;-7.2;60
57374;BME280;43964;53.890;25.340;2022-12-18T02:39:28;1034.1;;;-7.2;60
57374;BME280;43964;53.890;25.340;2022-12-18T02:44:28;1034.2;;;-7.3;60
57374;BME280;43964;53.890;25.340;2022-12-18T02:49:31;1034.3;;;-7.4;60
57374;BME280;43964;53.890;25.340;2022-12-18T02:54:35;1034.3;;;-7.3;60
57374;BME280;43964;53.890;25.340;2022-12-18T02:59:53;1034.4;;;-7.2;60
57374;BME280;43964;53.890;25.340;2022-12-18T03:04:29;1034.5;;;-7.2;60.1
57374;BME280;43964;53.890;25.340;2022-12-18T03:09:39;1034.6;;;-7.2;60.2
57374;BME280;43964;53.890;25.340;2022-12-18T03:14:29;1034.7;;;-7.3;60.1
57374;BME280;43964;53.890;25.340;2022-12-18T03:19:29;1034.8;;;-7.3;60.1
57374;BME280;43964;53.890;25.340;2022-12-18T03:24:29;1034.9;;;-7.2;60.1
57374;BME280;43964;53.890;25.340;2022-12-18T03:29:31;1035;;;-7.2;60
57374;BME280;43964;53.890;25.340;2022-12-18T03:34:29;1035.1;;;-7.4;59.8
57374;BME280;43964;53.890;25.340;2022-12-18T03:39:38;1035.1;;;-7.6;59.9
57374;BME280;43964;53.890;25.340;2022-12-18T03:44:39;1035.1;;;-7.6;59.9
57374;BME280;43964;53.890;25.340;2022-12-18T03:49:39;1035.1;;;-8;60.4
57374;BME280;43964;53.890;25.340;2022-12-18T03:54:28;1035.2;;;-8;60.3
57374;BME280;43964;53.890;25.340;2022-12-18T03:59:28;1035.2;;;-8;60.6
57374;BME280;43964;53.890;25.340;2022-12-18T04:04:28;1035.3;;;-7.9;61.2
57374;BME280;43964;53.890;25.340;2022-12-18T04:09:53;1035.3;;;-7.6;61.3
57374;BME280;43964;53.890;25.340;2022-12-18T04:14:38;1035.3;;;-7.4;61.3
57374;BME280;43964;53.890;25.340;2022-12-18T04:19:28;1035.4;;;-7.2;61.3
57374;BME280;43964;53.890;25.340;2022-12-18T04:24:38;1035.5;;;-7.1;61.3
57374;BME280;43964;53.890;25.340;2022-12-18T04:29:38;1035.5;;;-6.9;61.2
57374;BME280;43964;53.890;25.340;2022-12-18T04:34:38;1035.6;;;-6.8;61.4
57374;BME280;43964;53.890;25.340;2022-12-18T04:39:48;1035.7;;;-6.8;61.4
57374;BME280;43964;53.890;25.340;2022-12-18T04:44:28;1035.7;;;-6.7;61.5
57374;BME280;43964;53.890;25.340;2022-12-18T04:49:40;1035.8;;;-6.6;61.5
57374;BME280;43964;53.890;25.340;2022-12-18T04:54:38;1035.8;;;-6.6;61.4
57374;BME280;43964;53.890;25.340;2022-12-18T04:59:50;1036;;;-6.5;61.4
57374;BME280;43964;53.890;25.340;2022-12-18T05:04:50;1036.2;;;-6.5;61.4
57374;BME280;43964;53.890;25.340;2022-12-18T05:09:28;1036.3;;;-6.3;61.4
57374;BME280;43964;53.890;25.340;2022-12-18T05:14:28;1036.3;;;-6.3;61.4
57374;BME280;43964;53.890;25.340;2022-12-18T05:19:28;1036.3;;;-6.3;61.5
57374;BME280;43964;53.890;25.340;2022-12-18T05:24:28;1036.4;;;-6.3;61.5
57374;BME280;43964;53.890;25.340;2022-12-18T05:30:15;1036.5;;;-6.2;61.6
57374;BME280;43964;53.890;25.340;2022-12-18T05:34:48;1036.5;;;-6.2;61.6
57374;BME280;43964;53.890;25.340;2022-12-18T05:40:11;1036.7;;;-6;61.5
57374;BME280;43964;53.890;25.340;2022-12-18T05:44:28;1036.7;;;-6;61.5
57374;BME280;43964;53.890;25.340;2022-12-18T05:49:28;1036.8;;;-6;61.5
57374;BME280;43964;53.890;25.340;2022-12-18T05:54:38;1036.9;;;-5.9;61.3
57374;BME280;43964;53.890;25.340;2022-12-18T05:59:38;1036.9;;;-6;61.4
57374;BME280;43964;53.890;25.340;2022-12-18T06:04:39;1037;;;-5.9;61.5
57374;BME280;43964;53.890;25.340;2022-12-18T06:09:38;1037.1;;;-5.8;61.5
57374;BME280;43964;53.890;25.340;2022-12-18T06:14:28;1037.2;;;-5.8;61.5
57374;BME280;43964;53.890;25.340;2022-12-18T06:19:28;1037.2;;;-5.7;61.5
57374;BME280;43964;53.890;25.340;2022-12-18T06:24:38;1037.3;;;-5.6;61.5
57374;BME280;43964;53.890;25.340;2022-12-18T06:30:13;1037.5;;;-5.6;61.3
57374;BME280;43964;53.890;25.340;2022-12-18T06:35:05;1037.5;;;-5.6;61.3
57374;BME280;43964;53.890;25.340;2022-12-18T06:40:00;1037.6;;;-5.5;61.3
57374;BME280;43964;53.890;25.340;2022-12-18T06:44:38;1037.8;;;-5.4;61.2
57374;BME280;43964;53.890;25.340;2022-12-18T06:49:38;1037.9;;;-5.4;61.3
57374;BME280;43964;53.890;25.340;2022-12-18T06:54:38;1037.9;;;-5.4;61.1
57374;BME280;43964;53.890;25.340;2022-12-18T06:59:28;1038;;;-5.4;61.1
57374;BME280;43964;53.890;25.340;2022-12-18T07:04:40;1038.1;;;-5.3;61.1
57374;BME280;43964;53.890;25.340;2022-12-18T07:09:28;1038.2;;;-5.3;61.2
57374;BME280;43964;53.890;25.340;2022-12-18T07:14:38;1038.3;;;-5.4;61.1
57374;BME280;43964;53.890;25.340;2022-12-18T07:19:28;1038.4;;;-5.5;61.2
57374;BME280;43964;53.890;25.340;2022-12-18T07:24:40;1038.5;;;-5.4;61.1
57374;BME280;43964;53.890;25.340;2022-12-18T07:29:28;1038.5;;;-5.3;61.1
57374;BME280;43964;53.890;25.340;2022-12-18T07:34:48;1038.6;;;-5.3;61.1
57374;BME280;43964;53.890;25.340;2022-12-18T07:39:48;1038.6;;;-5;61.1
57374;BME280;43964;53.890;25.340;2022-12-18T07:44:28;1038.7;;;-4.8;61
57374;BME280;43964;53.890;25.340;2022-12-18T07:49:28;1038.8;;;-4.5;60.7
57374;BME280;43964;53.890;25.340;2022-12-18T07:54:42;1038.7;;;-4.4;60.6
57374;BME280;43964;53.890;25.340;2022-12-18T07:59:28;1038.7;;;-4.2;60.5
57374;BME280;43964;53.890;25.340;2022-12-18T08:04:28;1038.8;;;-3.9;60.3
57374;BME280;43964;53.890;25.340;2022-12-18T08:09:42;1038.8;;;-3.6;60
57374;BME280;43964;53.890;25.340;2022-12-18T08:14:52;1038.9;;;-3.5;60
57374;BME280;43964;53.890;25.340;2022-12-18T08:19:52;1038.9;;;-3.5;59.8
57374;BME280;43964;53.890;25.340;2022-12-18T08:24:28;1039;;;-3.5;59.6
57374;BME280;43964;53.890;25.340;2022-12-18T08:29:28;1039.1;;;-3.4;59.5
57374;BME280;43964;53.890;25.340;2022-12-18T08:34:38;1039.3;;;-3.2;59.3
57374;BME280;43964;53.890;25.340;2022-12-18T08:39:36;1039.4;;;-3.1;59.3
57374;BME280;43964;53.890;25.340;2022-12-18T08:44:28;1039.4;;;-3.2;59.3
57374;BME280;43964;53.890;25.340;2022-12-18T08:49:28;1039.5;;;-3.2;59.3
57374;BME280;43964;53.890;25.340;2022-12-18T08:54:38;1039.5;;;-3.1;59
57374;BME280;43964;53.890;25.340;2022-12-18T08:59:28;1039.6;;;-2.8;59
57374;BME280;43964;53.890;25.340;2022-12-18T09:04:28;1039.6;;;-2.6;58.6
57374;BME280;43964;53.890;25.340;2022-12-18T09:09:38;1039.7;;;-2.6;58.5
57374;BME280;43964;53.890;25.340;2022-12-18T09:14:38;1039.7;;;-2.4;58.2
57374;BME280;43964;53.890;25.340;2022-12-18T09:19:28;1039.8;;;-2.2;58.1
57374;BME280;43964;53.890;25.340;2022-12-18T09:24:28;1039.8;;;-2.3;58.2
57374;BME280;43964;53.890;25.340;2022-12-18T09:29:28;1039.8;;;-2.3;58.2
57374;BME280;43964;53.890;25.340;2022-12-18T09:34:42;1039.8;;;-2.3;58.2
57374;BME280;43964;53.890;25.340;2022-12-18T11:44:41;1040.8;;;-1;54.9
57374;BME280;43964;53.890;25.340;2022-12-18T11:49:31;1040.8;;;-1.1;54.8
57374;BME280;43964;53.890;25.340;2022-12-18T11:54:38;1040.8;;;-1.1;54.9
57374;BME280;43964;53.890;25.340;2022-12-18T11:59:53;1040.8;;;-1.1;55
57374;BME280;43964;53.890;25.340;2022-12-18T12:05:03;1040.8;;;-1;55
57374;BME280;43964;53.890;25.340;2022-12-18T12:09:40;1040.8;;;-0.9;55
57374;BME280;43964;53.890;25.340;2022-12-18T12:14:42;1040.8;;;-0.9;55
57374;BME280;43964;53.890;25.340;2022-12-18T12:19:43;1040.8;;;-1;54.9
57374;BME280;43964;53.890;25.340;2022-12-18T12:24:31;1040.8;;;-1;54.9
57374;BME280;43964;53.890;25.340;2022-12-18T12:29:32;1041;;;-1.1;54.7
57374;BME280;43964;53.890;25.340;2022-12-18T12:34:52;1040.9;;;-1.1;54.6
57374;BME280;43964;53.890;25.340;2022-12-18T12:39:41;1040.9;;;-1.1;54.6
57374;BME280;43964;53.890;25.340;2022-12-18T12:44:30;1041.1;;;-1.2;54.7
57374;BME280;43964;53.890;25.340;2022-12-18T12:49:39;1041.1;;;-1.3;54.7
57374;BME280;43964;53.890;25.340;2022-12-18T12:54:29;1041.3;;;-1.3;54.9
57374;BME280;43964;53.890;25.340;2022-12-18T12:59:40;1041.3;;;-1.4;54.9
57374;BME280;43964;53.890;25.340;2022-12-18T13:04:49;1041.4;;;-1.6;55.1
57374;BME280;43964;53.890;25.340;2022-12-18T13:14:39;1041.6;;;-1.8;55.3
57374;BME280;43964;53.890;25.340;2022-12-18T13:20:06;1041.7;;;-1.9;55.5
57374;BME280;43964;53.890;25.340;2022-12-18T13:24:37;1041.7;;;-1.8;55.7
57374;BME280;43964;53.890;25.340;2022-12-18T13:29:45;1041.7;;;-1.8;55.7
57374;BME280;43964;53.890;25.340;2022-12-18T13:34:29;1041.7;;;-1.9;55.7
57374;BME280;43964;53.890;25.340;2022-12-18T13:39:51;1041.7;;;-1.9;55.8
57374;BME280;43964;53.890;25.340;2022-12-18T13:44:41;1041.7;;;-1.9;55.8
57374;BME280;43964;53.890;25.340;2022-12-18T13:49:31;1041.8;;;-2;55.9
57374;BME280;43964;53.890;25.340;2022-12-18T13:54:30;1041.9;;;-2.1;56.1
57374;BME280;43964;53.890;25.340;2022-12-18T13:59:32;1041.9;;;-2.1;56.1
57374;BME280;43964;53.890;25.340;2022-12-18T14:04:29;1042;;;-2.1;56
57374;BME280;43964;53.890;25.340;2022-12-18T14:09:49;1042.1;;;-2.3;56.2
57374;BME280;43964;53.890;25.340;2022-12-18T14:14:29;1042.2;;;-2.3;56.5
57374;BME280;43964;53.890;25.340;2022-12-18T14:19:53;1042.2;;;-2.3;56.5
57374;BME280;43964;53.890;25.340;2022-12-18T14:24:43;1042.3;;;-2.4;56.7
57374;BME280;43964;53.890;25.340;2022-12-18T14:29:53;1042.3;;;-2.4;56.7
57374;BME280;43964;53.890;25.340;2022-12-18T14:34:41;1042.4;;;-2.4;56.8
57374;BME280;43964;53.890;25.340;2022-12-18T14:39:53;1042.4;;;-2.4;57
57374;BME280;43964;53.890;25.340;2022-12-18T14:44:29;1042.6;;;-2.4;56.8
57374;BME280;43964;53.890;25.340;2022-12-18T14:49:53;1042.6;;;-2.5;57.1
57374;BME280;43964;53.890;25.340;2022-12-18T14:54:29;1042.7;;;-2.4;57.3
57374;BME280;43964;53.890;25.340;2022-12-18T14:59:29;1042.8;;;-2.3;57.3
57374;BME280;43964;53.890;25.340;2022-12-18T15:04:39;1042.7;;;-2.3;57.5
57374;BME280;43964;53.890;25.340;2022-12-18T15:09:29;1042.8;;;-2.3;57.4
57374;BME280;43964;53.890;25.340;2022-12-18T15:14:53;1042.8;;;-2.3;57.5
57374;BME280;43964;53.890;25.340;2022-12-18T15:19:39;1042.8;;;-2.3;57.5
57374;BME280;43964;53.890;25.340;2022-12-18T15:24:41;1042.8;;;-2.3;57.7
57374;BME280;43964;53.890;25.340;2022-12-18T15:29:29;1042.9;;;-2.2;57.7
57374;BME280;43964;53.890;25.340;2022-12-18T15:34:29;1042.9;;;-2.1;57.7
57374;BME280;43964;53.890;25.340;2022-12-18T15:39:49;1042.8;;;-2.1;57.8
57374;BME280;43964;53.890;25.340;2022-12-18T15:44:29;1042.8;;;-2.1;57.9
57374;BME280;43964;53.890;25.340;2022-12-18T15:49:49;1042.8;;;-2.1;57.9
57374;BME280;43964;53.890;25.340;2022-12-18T15:54:39;1042.8;;;-2.1;57.9
57374;BME280;43964;53.890;25.340;2022-12-18T15:59:29;1042.9;;;-2;58
57374;BME280;43964;53.890;25.340;2022-12-18T16:04:39;1043;;;-2;58
57374;BME280;43964;53.890;25.340;2022-12-18T16:09:41;1043;;;-2;58.1
57374;BME280;43964;53.890;25.340;2022-12-18T16:14:29;1043.1;;;-1.9;58.1
57374;BME280;43964;53.890;25.340;2022-12-18T16:19:29;1043.1;;;-1.9;58.1
57374;BME280;43964;53.890;25.340;2022-12-18T16:24:39;1043.2;;;-1.9;58
57374;BME280;43964;53.890;25.340;2022-12-18T16:29:29;1043.2;;;-1.9;58.1
57374;BME280;43964;53.890;25.340;2022-12-18T16:34:39;1043.2;;;-1.8;58.2
57374;BME280;43964;53.890;25.340;2022-12-18T16:39:39;1043.2;;;-1.8;58.2
57374;BME280;43964;53.890;25.340;2022-12-18T16:44:39;1043.2;;;-1.8;58.2
57374;BME280;43964;53.890;25.340;2022-12-18T16:49:29;1043.2;;;-1.8;58.2
57374;BME280;43964;53.890;25.340;2022-12-18T16:54:29;1043.3;;;-1.8;58.3
57374;BME280;43964;53.890;25.340;2022-12-18T16:59:29;1043.4;;;-1.9;58.2
57374;BME280;43964;53.890;25.340;2022-12-18T17:04:29;1043.3;;;-2;58.4
57374;BME280;43964;53.890;25.340;2022-12-18T17:09:29;1043.3;;;-2.1;58.6
57374;BME280;43964;53.890;25.340;2022-12-18T17:14:29;1043.3;;;-2;58.6
57374;BME280;43964;53.890;25.340;2022-12-18T17:19:29;1043.3;;;-1.9;58.5
57374;BME280;43964;53.890;25.340;2022-12-18T17:29:29;1043.3;;;-1.9;58.5
57374;BME280;43964;53.890;25.340;2022-12-18T17:34:49;1043.2;;;-1.9;58.3
57374;BME280;43964;53.890;25.340;2022-12-18T17:39:30;1043.3;;;-1.9;58.3
57374;BME280;43964;53.890;25.340;2022-12-18T17:44:39;1043.4;;;-1.9;58.3
57374;BME280;43964;53.890;25.340;2022-12-18T17:49:39;1043.5;;;-1.8;58.5
57374;BME280;43964;53.890;25.340;2022-12-18T17:54:29;1043.5;;;-1.8;58.4
57374;BME280;43964;53.890;25.340;2022-12-18T17:59:39;1043.6;;;-1.8;58.4
57374;BME280;43964;53.890;25.340;2022-12-18T18:04:29;1043.5;;;-1.8;58.5
57374;BME280;43964;53.890;25.340;2022-12-18T18:09:39;1043.4;;;-1.9;58.6
57374;BME280;43964;53.890;25.340;2022-12-18T18:14:29;1043.4;;;-2;58.6
57374;BME280;43964;53.890;25.340;2022-12-18T18:19:39;1043.3;;;-2.2;58.7
57374;BME280;43964;53.890;25.340;2022-12-18T18:24:29;1043.2;;;-2.3;58.7
57374;BME280;43964;53.890;25.340;2022-12-18T18:29:41;1043.2;;;-2.5;58.7
57374;BME280;43964;53.890;25.340;2022-12-18T18:34:30;1043.3;;;-2.7;58.7
57374;BME280;43964;53.890;25.340;2022-12-18T18:39:39;1043.3;;;-2.8;58.8
57374;BME280;43964;53.890;25.340;2022-12-18T18:44:39;1043.3;;;-3;58.7
57374;BME280;43964;53.890;25.340;2022-12-18T18:49:39;1043.2;;;-3.1;58.7
57374;BME280;43964;53.890;25.340;2022-12-18T18:54:43;1043.3;;;-3.3;58.6
57374;BME280;43964;53.890;25.340;2022-12-18T18:59:29;1043.3;;;-3.4;58.6
57374;BME280;43964;53.890;25.340;2022-12-18T19:05:01;1043.4;;;-3.6;58.6
57374;BME280;43964;53.890;25.340;2022-12-18T19:09:39;1043.5;;;-3.8;58.7
57374;BME280;43964;53.890;25.340;2022-12-18T19:14:29;1043.7;;;-3.9;58.7
57374;BME280;43964;53.890;25.340;2022-12-18T19:19:29;1043.9;;;-4.1;58.7
57374;BME280;43964;53.890;25.340;2022-12-18T19:24:39;1043.9;;;-4.3;58.8
57374;BME280;43964;53.890;25.340;2022-12-18T19:29:39;1043.9;;;-4.4;58.9
57374;BME280;43964;53.890;25.340;2022-12-18T19:34:40;1044;;;-4.4;59
57374;BME280;43964;53.890;25.340;2022-12-18T19:39:39;1044.1;;;-4.5;59.1
57374;BME280;43964;53.890;25.340;2022-12-18T19:44:39;1044.2;;;-4.6;59.1
57374;BME280;43964;53.890;25.340;2022-12-18T19:49:37;1044.2;;;-4.7;59.2
57374;BME280;43964;53.890;25.340;2022-12-18T19:54:29;1044.3;;;-4.7;59.2
57374;BME280;43964;53.890;25.340;2022-12-18T19:59:39;1044.3;;;-4.8;59.3
57374;BME280;43964;53.890;25.340;2022-12-18T20:04:29;1044.3;;;-4.9;59.4
57374;BME280;43964;53.890;25.340;2022-12-18T20:09:39;1044.3;;;-4.9;59.4
57374;BME280;43964;53.890;25.340;2022-12-18T20:14:49;1044.4;;;-5;59.4
57374;BME280;43964;53.890;25.340;2022-12-18T20:19:49;1044.4;;;-5;59.4
57374;BME280;43964;53.890;25.340;2022-12-18T20:24:29;1044.4;;;-5.1;59.4
57374;BME280;43964;53.890;25.340;2022-12-18T20:29:49;1044.4;;;-5.2;59.4
57374;BME280;43964;53.890;25.340;2022-12-18T20:34:55;1044.4;;;-5.3;59.4
57374;BME280;43964;53.890;25.340;2022-12-18T20:39:51;1044.5;;;-5.3;59.4
57374;BME280;43964;53.890;25.340;2022-12-18T20:44:29;1044.5;;;-5.4;59.5
57374;BME280;43964;53.890;25.340;2022-12-18T20:49:39;1044.6;;;-5.5;59.6
57374;BME280;43964;53.890;25.340;2022-12-18T20:54:39;1044.5;;;-5.6;59.6
57374;BME280;43964;53.890;25.340;2022-12-18T20:59:41;1044.5;;;-5.7;59.6
57374;BME280;43964;53.890;25.340;2022-12-18T21:04:29;1044.6;;;-5.8;59.6
57374;BME280;43964;53.890;25.340;2022-12-18T21:09:39;1044.7;;;-5.8;59.6
57374;BME280;43964;53.890;25.340;2022-12-18T21:14:29;1044.8;;;-6;59.4
57374;BME280;43964;53.890;25.340;2022-12-18T21:19:29;1044.7;;;-6.1;59.5
57374;BME280;43964;53.890;25.340;2022-12-18T21:24:51;1044.8;;;-6.1;59.7
57374;BME280;43964;53.890;25.340;2022-12-18T21:29:39;1044.8;;;-6.2;59.7
57374;BME280;43964;53.890;25.340;2022-12-18T21:34:41;1044.8;;;-6.3;59.7
57374;BME280;43964;53.890;25.340;2022-12-18T21:39:49;1045;;;-6.3;59.8
57374;BME280;43964;53.890;25.340;2022-12-18T21:44:29;1044.9;;;-6.4;59.6
57374;BME280;43964;53.890;25.340;2022-12-18T21:49:27;1045;;;-6.5;59.5
57374;BME280;43964;53.890;25.340;2022-12-18T21:54:45;1045;;;-6.6;59.6
57374;BME280;43964;53.890;25.340;2022-12-18T21:59:36;1045;;;-6.7;59.7
57374;BME280;43964;53.890;25.340;2022-12-18T22:04:25;1045;;;-6.7;59.8
57374;BME280;43964;53.890;25.340;2022-12-18T22:09:25;1045;;;-6.8;59.8
57374;BME280;43964;53.890;25.340;2022-12-18T22:14:35;1044.9;;;-6.8;59.8
57374;BME280;43964;53.890;25.340;2022-12-18T22:19:25;1044.8;;;-6.9;59.7
57374;BME280;43964;53.890;25.340;2022-12-18T22:24:25;1044.8;;;-6.9;59.8
57374;BME280;43964;53.890;25.340;2022-12-18T22:29:35;1044.8;;;-7;60
57374;BME280;43964;53.890;25.340;2022-12-18T22:34:25;1044.8;;;-7;59.9
57374;BME280;43964;53.890;25.340;2022-12-18T22:39:35;1044.8;;;-7.1;59.9
57374;BME280;43964;53.890;25.340;2022-12-18T22:44:45;1044.8;;;-7.1;59.8
57374;BME280;43964;53.890;25.340;2022-12-18T22:49:25;1044.7;;;-7.2;59.7
57374;BME280;43964;53.890;25.340;2022-12-18T22:54:25;1044.6;;;-7.2;59.8
57374;BME280;43964;53.890;25.340;2022-12-18T22:59:25;1044.6;;;-7.3;59.8
57374;BME280;43964;53.890;25.340;2022-12-18T23:04:25;1044.5;;;-7.4;59.8
57374;BME280;43964;53.890;25.340;2022-12-18T23:09:25;1044.5;;;-7.4;59.8
57374;BME280;43964;53.890;25.340;2022-12-18T23:14:47;1044.5;;;-7.6;59.7
57374;BME280;43964;53.890;25.340;2022-12-18T23:19:25;1044.5;;;-7.7;59.8
57374;BME280;43964;53.890;25.340;2022-12-18T23:24:45;1044.6;;;-7.8;59.9
57374;BME280;43964;53.890;25.340;2022-12-18T23:29:39;1044.5;;;-7.8;60
57374;BME280;43964;53.890;25.340;2022-12-18T23:34:25;1044.5;;;-7.8;59.8
57374;BME280;43964;53.890;25.340;2022-12-18T23:39:25;1044.5;;;-7.9;59.9
57374;BME280;43964;53.890;25.340;2022-12-18T23:44:25;1044.5;;;-7.9;59.9
57374;BME280;43964;53.890;25.340;2022-12-18T23:49:35;1044.6;;;-8;59.9
57374;BME280;43964;53.890;25.340;2022-12-18T23:54:35;1044.5;;;-8;59.9
57374;BME280;43964;53.890;25.340;2022-12-18T23:59:49;1044.6;;;-8.1;59.8
